createdAt,value
2019-02-15T00:02:59.478Z,6.20
2019-02-15T00:07:11.892Z,6.20
2019-02-15T00:11:25.347Z,6.20
2019-02-15T00:15:37.657Z,6.20
2019-02-15T00:19:54.192Z,6.10
2019-02-15T00:24:06.636Z,6.10
2019-02-15T00:28:19.361Z,6.10
2019-02-15T00:32:31.823Z,6.20
2019-02-15T00:36:44.240Z,6.20
2019-02-15T00:40:57.131Z,6.20
2019-02-15T00:45:11.052Z,6.20
2019-02-15T00:49:31.620Z,6.00
2019-02-15T00:54:01.432Z,6.00
2019-02-15T00:58:44.464Z,6.00
2019-02-15T01:03:15.517Z,6.00
2019-02-15T01:07:53.125Z,6.00
2019-02-15T01:12:08.871Z,6.00
2019-02-15T01:16:21.557Z,5.90
2019-02-15T01:20:33.981Z,5.90
2019-02-15T01:24:46.489Z,5.90
2019-02-15T01:29:20.802Z,5.90
2019-02-15T01:34:02.937Z,5.90
2019-02-15T01:38:37.549Z,5.90
2019-02-15T01:43:03.114Z,5.90
2019-02-15T01:47:19.421Z,5.90
2019-02-15T01:51:32.119Z,5.90
2019-02-15T01:55:44.595Z,5.90
2019-02-15T01:59:57.316Z,5.90
2019-02-15T02:04:09.781Z,5.80
2019-02-15T02:08:25.476Z,5.90
2019-02-15T02:12:38.354Z,5.80
2019-02-15T02:16:50.809Z,5.80
2019-02-15T02:21:04.362Z,5.80
2019-02-15T02:25:16.765Z,5.80
2019-02-15T02:29:30.376Z,5.80
2019-02-15T02:33:42.613Z,5.80
2019-02-15T02:37:55.512Z,5.70
2019-02-15T02:42:07.871Z,5.70
2019-02-15T02:46:20.397Z,5.70
2019-02-15T02:50:33.333Z,5.70
2019-02-15T02:54:46.207Z,5.70
2019-02-15T02:58:58.923Z,5.70
2019-02-15T03:03:11.276Z,5.60
2019-02-15T03:07:23.694Z,5.60
2019-02-15T03:11:36.676Z,5.60
2019-02-15T03:15:49.147Z,5.60
2019-02-15T03:20:02.147Z,5.70
2019-02-15T03:24:14.692Z,5.70
2019-02-15T03:28:27.088Z,5.60
2019-02-15T03:32:39.892Z,5.60
2019-02-15T03:37:09.875Z,5.50
2019-02-15T03:41:33.854Z,5.60
2019-02-15T03:45:47.793Z,5.70
2019-02-15T03:50:00.636Z,6.00
2019-02-15T03:54:13.133Z,6.00
2019-02-15T03:58:25.540Z,6.10
2019-02-15T04:02:38.395Z,6.00
2019-02-15T04:06:50.903Z,6.00
2019-02-15T04:11:04.631Z,5.90
2019-02-15T04:15:16.952Z,5.90
2019-02-15T04:19:29.936Z,5.70
2019-02-15T04:23:42.400Z,5.70
2019-02-15T04:27:54.809Z,5.70
2019-02-15T04:32:08.336Z,5.60
2019-02-15T04:36:20.703Z,5.60
2019-02-15T04:40:33.556Z,5.60
2019-02-15T04:44:46.008Z,5.60
2019-02-15T04:48:59.679Z,5.50
2019-02-15T04:53:12.134Z,5.50
2019-02-15T04:57:24.851Z,5.40
2019-02-15T05:01:37.368Z,5.40
2019-02-15T05:05:49.616Z,5.40
2019-02-15T05:10:02.405Z,5.30
2019-02-15T05:14:14.966Z,5.20
2019-02-15T05:18:27.382Z,5.30
2019-02-15T05:22:40.163Z,5.30
2019-02-15T05:26:52.624Z,5.20
2019-02-15T05:31:05.032Z,5.20
2019-02-15T05:35:17.993Z,5.10
2019-02-15T05:39:30.589Z,5.10
2019-02-15T05:43:42.896Z,5.10
2019-02-15T05:47:55.887Z,5.10
2019-02-15T05:52:08.517Z,5.20
2019-02-15T05:56:21.338Z,5.10
2019-02-15T06:00:37.129Z,5.00
2019-02-15T06:04:47.705Z,5.00
2019-02-15T06:09:00.320Z,4.90
2019-02-15T06:13:12.893Z,4.90
2019-02-15T06:17:25.303Z,4.90
2019-02-15T06:21:38.190Z,4.90
2019-02-15T06:25:50.641Z,4.90
2019-02-15T06:30:03.102Z,4.80
2019-02-15T06:34:15.845Z,4.80
2019-02-15T06:38:34.609Z,4.80
2019-02-15T06:42:42.820Z,4.70
2019-02-15T06:46:55.281Z,4.70
2019-02-15T06:51:07.795Z,4.60
2019-02-15T06:55:20.751Z,4.60
2019-02-15T06:59:43.383Z,4.60
2019-02-15T07:04:13.596Z,4.60
2019-02-15T07:08:26.366Z,4.60
2019-02-15T07:12:38.951Z,4.70
2019-02-15T07:16:51.373Z,4.60
2019-02-15T07:21:04.273Z,4.50
2019-02-15T07:25:16.713Z,4.50
2019-02-15T07:29:29.705Z,4.50
2019-02-15T07:33:42.262Z,4.50
2019-02-15T07:37:54.685Z,4.50
2019-02-15T07:42:07.628Z,4.50
2019-02-15T07:46:20.844Z,4.50
2019-02-15T07:50:34.816Z,4.50
2019-02-15T07:54:47.588Z,4.60
2019-02-15T07:59:00.403Z,4.70
2019-02-15T08:03:12.961Z,4.70
2019-02-15T08:07:25.269Z,4.80
2019-02-15T08:11:38.238Z,5.10
2019-02-15T08:15:52.170Z,5.40
2019-02-15T08:20:04.670Z,5.70
2019-02-15T08:24:17.556Z,5.90
2019-02-15T08:28:30.112Z,6.20
2019-02-15T08:32:42.527Z,6.30
2019-02-15T08:36:54.852Z,6.50
2019-02-15T08:41:07.734Z,6.70
2019-02-15T08:45:20.261Z,6.90
2019-02-15T08:49:33.186Z,7.10
2019-02-15T08:53:45.807Z,7.30
2019-02-15T08:57:58.049Z,7.50
2019-02-15T09:02:22.943Z,7.70
2019-02-15T09:06:35.480Z,7.90
2019-02-15T09:10:47.895Z,8.10
2019-02-15T09:15:00.909Z,8.20
2019-02-15T09:19:13.449Z,8.40
2019-02-15T09:23:25.855Z,8.60
2019-02-15T09:27:53.892Z,8.70
2019-02-15T09:32:07.640Z,9.00
2019-02-15T09:36:20.101Z,9.20
2019-02-15T09:40:33.099Z,9.50
2019-02-15T09:44:45.656Z,9.70
2019-02-15T09:48:58.153Z,9.90
2019-02-15T09:53:10.976Z,10.00
2019-02-15T09:57:23.412Z,10.20
2019-02-15T10:01:36.412Z,10.40
2019-02-15T10:05:48.960Z,10.50
2019-02-15T10:10:01.951Z,10.70
2019-02-15T10:14:14.505Z,10.80
2019-02-15T10:18:26.992Z,10.90
2019-02-15T10:22:39.716Z,11.10
2019-02-15T10:26:52.285Z,11.30
2019-02-15T10:31:05.153Z,11.40
2019-02-15T10:35:17.707Z,11.60
2019-02-15T10:39:31.251Z,11.60
2019-02-15T10:43:43.664Z,11.60
2019-02-15T10:47:56.455Z,11.50
2019-02-15T10:52:09.075Z,11.40
2019-02-15T10:56:22.063Z,11.60
2019-02-15T11:00:34.763Z,11.70
2019-02-15T11:04:47.174Z,12.00
2019-02-15T11:08:59.977Z,11.90
2019-02-15T11:13:12.421Z,12.00
2019-02-15T11:17:24.734Z,11.90
2019-02-15T11:21:38.233Z,12.00
2019-02-15T11:25:50.486Z,12.00
2019-02-15T11:30:03.271Z,12.00
2019-02-15T11:34:15.623Z,12.20
2019-02-15T11:38:28.045Z,12.40
2019-02-15T11:42:40.938Z,12.50
2019-02-15T11:46:56.729Z,12.60
2019-02-15T11:51:07.461Z,12.60
2019-02-15T11:55:20.383Z,12.40
2019-02-15T11:59:32.877Z,12.20
2019-02-15T12:03:45.300Z,12.20
2019-02-15T12:07:58.092Z,12.20
2019-02-15T12:12:11.127Z,11.90
2019-02-15T12:16:23.879Z,11.80
2019-02-15T12:20:36.300Z,11.60
2019-02-15T12:24:48.790Z,11.50
2019-02-15T12:29:02.053Z,11.30
2019-02-15T12:33:14.462Z,11.20
2019-02-15T12:37:27.258Z,11.10
2019-02-15T12:41:39.706Z,11.10
2019-02-15T12:45:52.116Z,11.10
2019-02-15T12:50:05.000Z,11.20
2019-02-15T12:54:17.549Z,11.10
2019-02-15T12:58:30.093Z,11.20
2019-02-15T13:02:42.862Z,11.30
2019-02-15T13:06:55.221Z,11.40
2019-02-15T13:11:08.303Z,11.40
2019-02-15T13:15:20.768Z,11.50
2019-02-15T13:19:34.308Z,11.40
2019-02-15T13:23:46.623Z,11.40
2019-02-15T13:27:59.684Z,11.40
2019-02-15T13:32:12.172Z,11.20
2019-02-15T13:36:24.582Z,11.10
2019-02-15T13:40:37.475Z,11.20
2019-02-15T13:44:49.941Z,11.10
2019-02-15T13:49:02.920Z,11.00
2019-02-15T13:53:15.496Z,10.90
2019-02-15T13:57:29.051Z,10.90
2019-02-15T14:01:41.388Z,10.90
2019-02-15T14:05:53.636Z,10.90
2019-02-15T14:10:06.426Z,10.90
2019-02-15T14:14:18.789Z,11.00
2019-02-15T14:18:31.193Z,11.10
2019-02-15T14:22:44.084Z,11.10
2019-02-15T14:26:56.535Z,11.10
2019-02-15T14:31:08.947Z,11.20
2019-02-15T14:35:21.750Z,11.20
2019-02-15T14:39:35.485Z,11.00
2019-02-15T14:43:47.951Z,11.00
2019-02-15T14:48:00.250Z,11.10
2019-02-15T14:52:13.166Z,11.00
2019-02-15T14:56:25.840Z,11.00
2019-02-15T15:00:39.004Z,11.00
2019-02-15T15:04:51.427Z,11.00
2019-02-15T15:09:04.917Z,11.00
2019-02-15T15:13:17.779Z,10.90
2019-02-15T15:17:30.349Z,10.90
2019-02-15T15:21:43.332Z,10.90
2019-02-15T15:25:55.900Z,10.90
2019-02-15T15:30:09.394Z,11.00
2019-02-15T15:34:21.823Z,10.90
2019-02-15T15:38:35.546Z,10.90
2019-02-15T15:42:48.268Z,10.80
2019-02-15T15:47:00.638Z,10.80
2019-02-15T15:51:13.617Z,10.90
2019-02-15T15:55:26.297Z,10.90
2019-02-15T15:59:38.862Z,10.90
2019-02-15T16:03:51.585Z,10.90
2019-02-15T16:08:04.861Z,10.90
2019-02-15T16:12:17.485Z,10.80
2019-02-15T16:16:31.809Z,10.80
2019-02-15T16:20:44.738Z,10.80
2019-02-15T16:24:58.278Z,10.70
2019-02-15T16:29:14.164Z,10.70
2019-02-15T16:33:27.568Z,10.60
2019-02-15T16:37:40.443Z,10.50
2019-02-15T16:41:53.913Z,10.50
2019-02-15T16:46:06.409Z,10.50
2019-02-15T16:50:19.320Z,10.50
2019-02-15T16:54:31.892Z,10.50
2019-02-15T16:58:44.343Z,10.60
2019-02-15T17:02:56.976Z,10.60
2019-02-15T17:07:09.437Z,10.60
2019-02-15T17:11:22.476Z,10.50
2019-02-15T17:15:34.973Z,10.50
2019-02-15T17:19:47.376Z,10.50
2019-02-15T17:23:59.709Z,10.50
2019-02-15T17:28:12.491Z,10.50
2019-02-15T17:32:24.953Z,10.50
2019-02-15T17:36:37.354Z,10.50
2019-02-15T17:40:50.311Z,10.40
2019-02-15T17:45:02.803Z,10.40
2019-02-15T17:49:17.425Z,10.40
2019-02-15T17:53:30.363Z,10.40
2019-02-15T17:57:43.179Z,10.30
2019-02-15T18:01:55.544Z,10.40
2019-02-15T18:06:07.947Z,10.30
2019-02-15T18:10:22.293Z,10.30
2019-02-15T18:14:34.897Z,10.30
2019-02-15T18:18:49.278Z,10.20
2019-02-15T18:23:01.963Z,10.20
2019-02-15T18:27:14.334Z,10.30
2019-02-15T18:31:27.115Z,10.20
2019-02-15T18:35:39.578Z,10.20
2019-02-15T18:39:51.875Z,10.20
2019-02-15T18:44:04.554Z,10.20
2019-02-15T18:48:17.125Z,10.30
2019-02-15T18:52:29.440Z,10.20
2019-02-15T18:56:42.759Z,10.20
2019-02-15T19:00:55.356Z,10.20
2019-02-15T19:05:08.686Z,10.10
2019-02-15T19:09:22.169Z,10.10
2019-02-15T19:13:34.486Z,10.10
2019-02-15T19:17:47.436Z,10.00
2019-02-15T19:21:59.934Z,10.00
2019-02-15T19:26:12.345Z,10.00
2019-02-15T19:30:25.959Z,10.00
2019-02-15T19:34:38.665Z,10.00
2019-02-15T19:38:51.133Z,10.00
2019-02-15T19:43:03.960Z,10.00
2019-02-15T19:47:16.765Z,10.00
2019-02-15T19:51:30.316Z,10.00
2019-02-15T19:55:42.757Z,10.00
2019-02-15T19:59:55.692Z,10.00
2019-02-15T20:04:08.177Z,9.90
2019-02-15T20:08:20.588Z,9.90
2019-02-15T20:12:33.384Z,9.90
2019-02-15T20:16:45.844Z,9.90
2019-02-15T20:20:58.898Z,9.90
2019-02-15T20:25:11.865Z,9.90
2019-02-15T20:29:24.576Z,9.90
2019-02-15T20:33:37.050Z,9.90
2019-02-15T20:37:49.447Z,9.90
2019-02-15T20:42:02.333Z,9.90
2019-02-15T20:46:14.792Z,9.80
2019-02-15T20:50:28.335Z,9.90
2019-02-15T20:54:40.875Z,9.80
2019-02-15T20:58:53.701Z,9.80
2019-02-15T21:03:06.199Z,10.00
2019-02-15T21:07:18.513Z,10.00
2019-02-15T21:11:31.412Z,9.90
2019-02-15T21:15:43.859Z,9.80
2019-02-15T21:19:56.369Z,9.90
2019-02-15T21:24:09.234Z,9.90
2019-02-15T21:28:21.852Z,9.90
2019-02-15T21:32:34.701Z,9.90
2019-02-15T21:36:47.256Z,9.90
2019-02-15T21:41:00.696Z,9.90
2019-02-15T21:45:13.236Z,9.90
2019-02-15T21:49:26.109Z,10.00
2019-02-15T21:53:38.755Z,10.00
2019-02-15T21:57:51.203Z,10.00
2019-02-15T22:02:03.968Z,10.00
2019-02-15T22:06:16.436Z,10.00
2019-02-15T22:10:29.414Z,10.00
2019-02-15T22:14:41.973Z,9.90
2019-02-15T22:18:54.481Z,9.90
2019-02-15T22:23:07.381Z,9.90
2019-02-15T22:27:19.893Z,9.90
2019-02-15T22:31:32.712Z,9.80
2019-02-15T22:35:45.274Z,9.90
2019-02-15T22:39:58.268Z,10.00
2019-02-15T22:44:15.898Z,10.10
2019-02-15T22:48:28.836Z,10.10
2019-02-15T22:52:41.179Z,9.90
2019-02-15T22:56:53.677Z,9.90
2019-02-15T23:01:15.701Z,10.00
2019-02-15T23:05:28.178Z,10.00
2019-02-15T23:09:41.047Z,10.10
2019-02-15T23:13:53.505Z,10.00
2019-02-15T23:18:05.813Z,10.00
2019-02-15T23:22:18.722Z,10.10
2019-02-15T23:26:31.270Z,10.10
2019-02-15T23:30:44.321Z,10.10
2019-02-15T23:34:56.807Z,10.00
2019-02-15T23:39:09.230Z,10.00
2019-02-15T23:43:22.113Z,9.90
2019-02-15T23:47:34.677Z,10.00
2019-02-15T23:51:48.216Z,10.00
2019-02-15T23:56:00.525Z,10.00
